CDT,Max TemperatureF,Mean TemperatureF,Min TemperatureF,Max Dew PointF,MeanDew PointF,Min DewpointF,Max Humidity, Mean Humidity, Min Humidity, Max Sea Level PressureIn, Mean Sea Level PressureIn, Min Sea Level PressureIn, Max VisibilityMiles, Mean VisibilityMiles, Min VisibilityMiles, Max Wind SpeedMPH, Mean Wind SpeedMPH, Max Gust SpeedMPH,PrecipitationIn, CloudCover, Events, WindDirDegrees
2012-6-1,64,56,48,52,47,45,94,75,49,29.94,29.89,29.80,10,9,0,8,4,16,0.00,6,,312
2012-6-2,75,60,44,57,50,39,100,71,43,29.98,29.90,29.83,10,8,0,20,4,25,0.00,3,,221
2012-6-3,82,66,51,64,57,50,100,69,39,29.94,29.89,29.83,10,9,0,7,1,,0.00,1,,291
2012-6-4,89,72,57,66,61,55,100,69,43,29.88,29.83,29.76,10,9,1,16,3,23,0.00,3,,62
2012-6-5,78,66,55,57,53,50,88,62,39,29.97,29.91,29.86,10,10,10,14,5,18,0.00,1,,32
2012-6-6,77,66,53,54,49,46,94,59,36,30.08,30.02,29.97,10,10,10,14,6,23,0.00,0,,32
2012-6-7,82,65,48,55,50,46,100,63,28,30.13,30.09,30.05,10,10,5,10,3,,0.00,0,,40
2012-6-8,87,68,50,61,52,46,94,61,25,30.13,30.06,29.98,10,9,3,10,2,,0.00,0,,125
2012-6-9,93,71,51,61,56,50,100,58,31,30.02,29.96,29.88,10,9,2,16,3,21,0.00,1,,175
2012-6-10,87,72,57,64,61,54,94,66,43,29.98,29.94,29.91,10,10,6,16,4,23,0.00,1,,137
2012-6-11,84,74,64,72,67,63,94,82,66,30.00,29.92,29.85,10,9,0,13,3,25,0.50,5,Thunderstorm,186
2012-6-12,80,66,53,63,55,48,94,63,34,30.11,30.05,29.94,10,8,0,9,2,,0.00,1,,345
2012-6-13,80,66,51,55,52,48,94,62,34,30.16,30.10,30.04,10,10,8,10,3,,0.00,0,,33
2012-6-14,89,70,51,61,55,50,94,61,31,30.11,30.05,30.00,10,10,9,9,3,16,0.00,0,,89
2012-6-15,93,74,55,66,60,54,94,60,34,30.10,30.05,29.99,10,10,5,8,3,,0.00,0,,125
2012-6-16,93,78,64,70,66,63,100,64,41,30.13,30.05,29.96,10,9,3,17,6,23,0.00,0,,197
2012-6-17,91,80,71,70,67,64,83,64,52,30.04,29.95,29.88,10,10,10,15,7,22,0.00,4,,217
2012-6-18,93,82,71,68,65,61,78,56,38,29.96,29.90,29.87,10,10,10,24,11,30,0.00,0,,198
2012-6-19,95,80,66,68,64,61,88,56,36,30.06,30.02,29.96,10,10,5,22,9,25,0.00,1,,195
2012-6-20,96,82,68,66,62,59,83,54,32,30.13,30.06,29.99,10,10,10,17,8,25,0.00,0,,199
2012-6-21,93,78,62,68,64,59,94,65,36,30.05,30.00,29.95,10,10,10,15,4,25,0.00,1,,240
2012-6-22,87,72,57,63,57,52,94,61,31,30.04,30.00,29.96,10,9,0,8,2,,0.00,0,,2
2012-6-23,89,71,53,61,54,46,94,60,24,30.05,30.01,29.95,10,10,10,8,2,,0.00,0,,51
2012-6-24,93,78,64,70,62,57,94,60,32,30.03,29.97,29.92,10,10,10,8,1,,0.00,0,,341
2012-6-25,91,78,66,66,60,45,94,55,30,29.96,29.92,29.88,10,10,9,14,5,21,0.00,1,,33
2012-6-26,87,71,55,54,48,43,88,48,21,30.03,29.97,29.92,10,10,10,13,7,20,0.00,0,,55
2012-6-27,96,74,51,57,50,45,94,47,17,30.05,29.96,29.90,10,10,2,13,3,16,0.00,0,,198
2012-6-28,107,88,68,63,56,46,65,40,13,29.99,29.92,29.87,10,10,10,14,7,21,0.00,0,,225
2012-6-29,105,84,64,73,65,59,94,57,23,29.95,29.88,29.80,10,9,2,9,2,,0.00,0,,281
2012-6-30,104,86,69,73,66,61,83,51,24,29.88,29.85,29.81,10,10,7,12,3,17,0.00,0,,233